Time;durP1;ratioP1;P1;durP2;ratioP2;P2;SDS_P1;SDS_P2;PMS_P1;PMS_P2;Temp;Humidity;BMP_temperature;BMP_pressure;BME280_temperature;BME280_humidity;BME280_pressure;Samples;Min_cycle;Max_cycle;Signal;HPM_P1;HPM_P2
2021/09/08 00:00:04;;;;;;;;;;;;;;;9.48;100.00;101629.34;5094300;28;20414;-70
2021/09/08 00:02:38;;;;;;;;;;;;;;;9.48;100.00;101622.06;5093946;28;20423;-70
2021/09/08 00:05:05;;;;;;;;;;;;;;;9.45;100.00;101630.41;5094236;28;19924;-70
2021/09/08 00:07:31;;;;;;;;;;;;;;;9.43;100.00;101626.03;5093628;28;19966;-70
2021/09/08 00:09:58;;;;;;;;;;;;;;;9.38;100.00;101618.22;5093832;28;19963;-70
2021/09/08 00:12:24;;;;;;;;;;;;;;;9.43;100.00;101620.63;5094009;28;20030;-70
2021/09/08 00:14:52;;;;;;;;;;;;;;;9.39;100.00;101622.63;5093843;28;19928;-70
2021/09/08 00:17:18;;;;;;;;;;;;;;;9.35;100.00;101615.66;5093687;28;20028;-70
2021/09/08 00:19:44;;;;;;;;;;;;;;;9.37;100.00;101616.47;5093635;28;20292;-70
2021/09/08 00:22:11;;;;;;;;;;;;;;;9.36;100.00;101617.41;5093606;28;19946;-70
2021/09/08 00:24:38;;;;;;;;;;;;;;;9.32;100.00;101615.88;5093794;28;19928;-69
2021/09/08 00:27:06;;;;;;;;;;;;;;;9.28;100.00;101617.03;5093427;28;19994;-70
2021/09/08 00:29:32;;;;;;;;;;;;;;;9.28;100.00;101622.44;5075558;28;20038;-69
2021/09/08 00:32:01;;;;;;;;;;;;;;;9.25;100.00;101626.22;5093637;28;19959;-70
2021/09/08 00:34:28;;;;;;;;;;;;;;;9.23;100.00;101619.13;5093424;28;20019;-69
2021/09/08 00:36:54;;;;;;;;;;;;;;;9.23;100.00;101621.84;5093512;28;19952;-69
2021/09/08 00:39:21;;;;;;;;;;;;;;;9.20;100.00;101625.63;5093110;28;19931;-69
2021/09/08 00:41:48;;;;;;;;;;;;;;;9.17;100.00;101625.81;5093514;28;20362;-70
2021/09/08 00:44:15;;;;;;;;;;;;;;;9.16;100.00;101632.19;5092896;28;19955;-69
2021/09/08 00:46:42;;;;;;;;;;;;;;;9.12;100.00;101633.34;5093048;28;19928;-69
2021/09/08 00:49:10;;;;;;;;;;;;;;;9.10;100.00;101629.84;5093288;28;19924;-69
2021/09/08 00:51:38;;;;;;;;;;;;;;;9.13;100.00;101637.81;5092857;28;19924;-70
2021/09/08 00:54:10;;;;;;;;;;;;;;;9.08;100.00;101631.78;5093419;28;20406;-69
2021/09/08 00:56:37;;;;;;;;;;;;;;;9.10;100.00;101629.84;5092717;28;19930;-69
2021/09/08 00:59:05;;;;;;;;;;;;;;;9.06;100.00;101629.19;5092892;28;19924;-70
2021/09/08 01:01:34;;;;;;;;;;;;;;;9.02;100.00;101624.91;5092782;28;20041;-69
2021/09/08 01:04:01;;;;;;;;;;;;;;;9.01;100.00;101631.28;5092798;28;19924;-70
2021/09/08 01:06:31;;;;;;;;;;;;;;;8.97;100.00;101624.31;5092718;28;19924;-70
2021/09/08 01:08:58;;;;;;;;;;;;;;;8.93;100.00;101633.59;5092649;28;19930;-70
2021/09/08 01:11:25;;;;;;;;;;;;;;;8.94;100.00;101625.38;5092826;28;19924;-71
2021/09/08 01:13:54;;;;;;;;;;;;;;;8.90;100.00;101629.22;5092706;28;20487;-70
2021/09/08 01:16:21;;;;;;;;;;;;;;;8.88;100.00;101625.72;5092666;28;20280;-69
2021/09/08 01:18:47;;;;;;;;;;;;;;;8.85;100.00;101624.06;5092383;28;20049;-69
2021/09/08 01:21:13;;;;;;;;;;;;;;;8.83;100.00;101620.59;5092437;28;19967;-69
2021/09/08 01:23:41;;;;;;;;;;;;;;;8.82;100.00;101621.56;5092745;28;19931;-69
2021/09/08 01:26:09;;;;;;;;;;;;;;;8.81;100.00;101618.94;5092208;28;19955;-69
2021/09/08 01:28:35;;;;;;;;;;;;;;;8.79;100.00;101618.16;5092337;28;20015;-70
2021/09/08 01:31:02;;;;;;;;;;;;;;;8.78;100.00;101616.41;5074447;28;19931;-69
2021/09/08 01:33:28;;;;;;;;;;;;;;;8.76;100.00;101615.63;5091642;28;19959;-70
2021/09/08 01:35:54;;;;;;;;;;;;;;;8.75;100.00;101614.75;5092218;28;19955;-70
2021/09/08 01:38:20;;;;;;;;;;;;;;;8.73;100.00;101615.84;5091635;28;19932;-69
2021/09/08 01:40:48;;;;;;;;;;;;;;;8.70;100.00;101614.19;5092411;28;20380;-70
2021/09/08 01:43:14;;;;;;;;;;;;;;;8.69;100.00;101615.13;5074032;28;19971;-70
2021/09/08 01:45:41;;;;;;;;;;;;;;;8.76;100.00;101621.91;5092140;28;19978;-69
2021/09/08 01:48:08;;;;;;;;;;;;;;;8.73;100.00;101627.53;5091998;28;20360;-70
2021/09/08 01:50:34;;;;;;;;;;;;;;;8.75;100.00;101624.72;5092034;28;19967;-69
2021/09/08 01:53:00;;;;;;;;;;;;;;;8.72;100.00;101620.34;5092163;28;19967;-69
2021/09/08 01:55:27;;;;;;;;;;;;;;;8.72;100.00;101625.75;5091476;28;20018;-69
2021/09/08 01:57:54;;;;;;;;;;;;;;;8.69;100.00;101624.13;5091744;28;19924;-69
2021/09/08 02:00:21;;;;;;;;;;;;;;;8.68;100.00;101619.66;5092110;28;20027;-69
2021/09/08 02:02:47;;;;;;;;;;;;;;;8.66;100.00;101623.44;5091705;28;20022;-69
2021/09/08 02:05:15;;;;;;;;;;;;;;;8.64;100.00;101617.22;5091547;28;20027;-70
2021/09/08 02:07:41;;;;;;;;;;;;;;;8.63;100.00;101623.59;5091517;28;19977;-69
2021/09/08 02:10:08;;;;;;;;;;;;;;;8.61;100.00;101621.00;5092082;28;19963;-69
2021/09/08 02:12:36;;;;;;;;;;;;;;;8.60;100.00;101610.25;5091520;28;19928;-68
2021/09/08 02:15:04;;;;;;;;;;;;;;;8.58;100.00;101613.06;5091454;28;20454;-68
2021/09/08 02:17:30;;;;;;;;;;;;;;;8.57;100.00;101615.88;5091479;28;20027;-68
2021/09/08 02:19:57;;;;;;;;;;;;;;;8.56;100.00;101624.94;5091470;28;20383;-69
2021/09/08 02:22:23;;;;;;;;;;;;;;;8.57;100.00;101618.56;5091657;28;19924;-69
2021/09/08 02:24:49;;;;;;;;;;;;;;;8.61;100.00;101623.69;5073596;28;19977;-70
2021/09/08 02:27:16;;;;;;;;;;;;;;;8.58;100.00;101615.75;5091526;28;19963;-70
2021/09/08 02:29:42;;;;;;;;;;;;;;;8.60;100.00;101615.66;5091207;28;20018;-69
2021/09/08 02:32:10;;;;;;;;;;;;;;;8.54;100.00;101619.63;5091533;28;20023;-69
2021/09/08 02:34:36;;;;;;;;;;;;;;;8.50;100.00;101615.34;5091460;28;19981;-70
2021/09/08 02:37:02;;;;;;;;;;;;;;;8.48;100.00;101615.41;5091246;28;20019;-69
2021/09/08 02:39:30;;;;;;;;;;;;;;;8.46;100.00;101611.94;5091295;28;20019;-70
2021/09/08 02:41:56;;;;;;;;;;;;;;;8.45;100.00;101603.88;5091488;28;19928;-69
2021/09/08 02:44:23;;;;;;;;;;;;;;;8.43;100.00;101606.69;5091425;28;20018;-70
2021/09/08 02:46:49;;;;;;;;;;;;;;;8.42;100.00;101607.63;5091146;28;20018;-69
2021/09/08 02:49:16;;;;;;;;;;;;;;;8.41;100.00;101602.31;5090723;28;19930;-69
2021/09/08 02:51:43;;;;;;;;;;;;;;;8.43;100.00;101603.09;5091470;28;19951;-69
2021/09/08 02:54:09;;;;;;;;;;;;;;;8.40;100.00;101597.88;5091506;28;20454;-69
2021/09/08 02:56:35;;;;;;;;;;;;;;;8.36;100.00;101602.56;5090865;28;19959;-69
2021/09/08 02:59:02;;;;;;;;;;;;;;;8.39;100.00;101599.69;5091168;28;20014;-69
2021/09/08 03:01:28;;;;;;;;;;;;;;;8.38;100.00;101604.22;5091218;28;19959;-69
2021/09/08 03:03:54;;;;;;;;;;;;;;;8.37;100.00;101607.03;5091199;28;19946;-69
2021/09/08 03:06:22;;;;;;;;;;;;;;;8.33;100.00;101600.91;5090999;28;20026;-69
2021/09/08 03:08:48;;;;;;;;;;;;;;;8.34;100.00;101599.09;5090740;28;20031;-69
2021/09/08 03:11:14;;;;;;;;;;;;;;;8.33;100.00;101597.34;5091174;28;20467;-69
2021/09/08 03:13:41;;;;;;;;;;;;;;;8.37;100.00;101601.63;5090979;28;19927;-69
2021/09/08 03:16:07;;;;;;;;;;;;;;;8.38;100.00;101595.25;5092169;28;19924;-69
2021/09/08 03:18:33;;;;;;;;;;;;;;;8.32;100.00;101590.19;5094659;28;20019;-69
2021/09/08 03:20:59;;;;;;;;;;;;;;;8.29;100.00;101595.78;5094793;28;20039;-69
2021/09/08 03:23:27;;;;;;;;;;;;;;;8.31;100.00;101593.84;5094867;28;20402;-69
2021/09/08 03:25:53;;;;;;;;;;;;;;;8.26;100.00;101599.53;5094550;28;20367;-69
2021/09/08 03:28:19;;;;;;;;;;;;;;;8.21;100.00;101594.38;5094509;28;20014;-69
2021/09/08 03:30:46;;;;;;;;;;;;;;;8.23;100.00;101596.13;5094648;28;19928;-70
2021/09/08 03:33:12;;;;;;;;;;;;;;;8.23;100.00;101591.59;5094580;28;20441;-69
2021/09/08 03:35:38;;;;;;;;;;;;;;;8.23;100.00;101594.31;5094698;28;20403;-69
2021/09/08 03:38:05;;;;;;;;;;;;;;;8.23;100.00;101596.13;5093759;28;20007;-70
2021/09/08 03:40:32;;;;;;;;;;;;;;;8.20;100.00;101598.06;5094667;28;20027;-69
2021/09/08 03:42:58;;;;;;;;;;;;;;;8.21;100.00;101596.22;5094328;28;20019;-69
2021/09/08 03:45:25;;;;;;;;;;;;;;;8.21;100.00;101596.22;5093200;28;20027;-69
2021/09/08 03:47:51;;;;;;;;;;;;;;;8.20;100.00;101603.47;5081338;28;19964;-69
2021/09/08 03:50:17;;;;;;;;;;;;;;;8.24;100.00;101603.28;5083760;28;20008;-69
2021/09/08 03:52:44;;;;;;;;;;;;;;;8.20;100.00;101600.78;5094483;28;20013;-69
2021/09/08 03:55:10;;;;;;;;;;;;;;;8.21;100.00;101598.91;5093986;28;20369;-69
2021/09/08 03:57:38;;;;;;;;;;;;;;;8.20;100.00;101592.66;5094175;28;19931;-69
2021/09/08 04:00:05;;;;;;;;;;;;;;;8.17;100.00;101590.09;5094231;28;20011;-69
2021/09/08 04:02:31;;;;;;;;;;;;;;;8.15;100.00;101592.03;5093202;28;20384;-69
2021/09/08 04:04:58;;;;;;;;;;;;;;;8.14;100.00;101594.84;5109804;28;19928;-69
2021/09/08 04:07:25;;;;;;;;;;;;;;;8.14;100.00;101593.00;5093365;28;19931;-69
2021/09/08 04:09:51;;;;;;;;;;;;;;;8.17;100.00;101592.81;5094162;28;20026;-69
2021/09/08 04:12:17;;;;;;;;;;;;;;;8.24;100.00;101593.31;5093951;28;20018;-70
2021/09/08 04:14:45;;;;;;;;;;;;;;;8.28;100.00;101594.03;5093727;28;19931;-69
2021/09/08 04:17:11;;;;;;;;;;;;;;;8.29;100.00;101595.78;5093786;28;20042;-69
2021/09/08 04:19:37;;;;;;;;;;;;;;;8.21;100.00;101594.38;5092619;28;20027;-69
2021/09/08 04:22:04;;;;;;;;;;;;;;;8.16;100.00;101590.19;5093074;28;19924;-69
2021/09/08 04:24:30;;;;;;;;;;;;;;;8.11;100.00;101587.78;5093794;28;20031;-69
2021/09/08 04:26:56;;;;;;;;;;;;;;;8.09;100.00;101583.41;5087893;28;20441;-69
2021/09/08 04:29:23;;;;;;;;;;;;;;;8.07;100.00;101580.78;5088963;28;19975;-69
2021/09/08 04:31:50;;;;;;;;;;;;;;;8.07;100.00;101583.50;5072982;28;20011;-69
2021/09/08 04:34:17;;;;;;;;;;;;;;;8.05;100.00;101588.09;5073127;28;20295;-69
2021/09/08 04:36:43;;;;;;;;;;;;;;;8.05;100.00;101578.16;5072431;28;20015;-69
2021/09/08 04:39:09;;;;;;;;;;;;;;;8.07;100.00;101579.91;5078007;28;20056;-69
2021/09/08 04:41:35;;;;;;;;;;;;;;;8.13;100.00;101585.84;5093369;28;20356;-69
2021/09/08 04:44:02;;;;;;;;;;;;;;;8.16;100.00;101582.09;5093184;28;19963;-69
2021/09/08 04:46:28;;;;;;;;;;;;;;;8.20;100.00;101580.94;5092911;28;20027;-69
2021/09/08 04:48:56;;;;;;;;;;;;;;;8.23;100.00;101583.50;5088244;28;19924;-69
2021/09/08 04:51:23;;;;;;;;;;;;;;;8.25;100.00;101578.00;5092838;28;19924;-69
2021/09/08 04:53:49;;;;;;;;;;;;;;;8.27;100.00;101582.34;5092570;28;20023;-69
2021/09/08 04:56:16;;;;;;;;;;;;;;;8.33;100.00;101581.97;5092174;28;20011;-69
2021/09/08 04:58:42;;;;;;;;;;;;;;;8.38;100.00;101579.88;5092842;28;20346;-69
2021/09/08 05:01:08;;;;;;;;;;;;;;;8.47;100.00;101580.34;5081787;28;19930;-69
2021/09/08 05:03:35;;;;;;;;;;;;;;;8.58;100.00;101580.59;5080260;28;20003;-70
2021/09/08 05:06:02;;;;;;;;;;;;;;;8.64;100.00;101574.78;5089943;28;20407;-69
2021/09/08 05:08:29;;;;;;;;;;;;;;;8.72;100.00;101574.34;5091976;28;19924;-69
2021/09/08 05:10:55;;;;;;;;;;;;;;;8.82;100.00;101577.38;5091762;28;19981;-69
2021/09/08 05:13:21;;;;;;;;;;;;;;;8.92;100.00;101573.13;5092299;28;20124;-69
2021/09/08 05:15:47;;;;;;;;;;;;;;;9.05;100.00;101573.25;5092133;28;19965;-69
2021/09/08 05:18:14;;;;;;;;;;;;;;;9.17;100.00;101577.91;5091091;28;20011;-69
2021/09/08 05:20:40;;;;;;;;;;;;;;;9.29;100.00;101572.72;5072786;28;19930;-69
2021/09/08 05:23:08;;;;;;;;;;;;;;;9.53;100.00;101576.56;5092520;28;20019;-69
2021/09/08 05:25:34;;;;;;;;;;;;;;;9.87;100.00;101574.44;5092396;28;20046;-70
2021/09/08 05:28:00;;;;;;;;;;;;;;;10.25;100.00;101570.16;5091991;28;20027;-69
2021/09/08 05:30:26;;;;;;;;;;;;;;;10.77;100.00;101563.09;5092125;28;19951;-69
2021/09/08 05:32:53;;;;;;;;;;;;;;;11.33;100.00;101562.81;5091734;28;19932;-69
2021/09/08 05:35:19;;;;;;;;;;;;;;;11.76;100.00;101555.22;5092066;28;20011;-69
2021/09/08 05:37:45;;;;;;;;;;;;;;;12.15;100.00;101554.16;5092027;28;19977;-69
2021/09/08 05:40:13;;;;;;;;;;;;;;;12.62;100.00;101546.09;5090789;28;20370;-69
2021/09/08 05:42:39;;;;;;;;;;;;;;;13.05;100.00;101553.66;5091801;28;20006;-70
2021/09/08 05:45:06;;;;;;;;;;;;;;;13.35;100.00;101544.03;5073128;28;19924;-70
2021/09/08 05:47:33;;;;;;;;;;;;;;;13.74;100.00;101549.16;5091428;28;19982;-69
2021/09/08 05:49:59;;;;;;;;;;;;;;;14.04;100.00;101543.03;5092131;28;20361;-69
2021/09/08 05:52:25;;;;;;;;;;;;;;;14.26;100.00;101537.63;5091078;28;20018;-69
2021/09/08 05:54:52;;;;;;;;;;;;;;;14.49;100.00;101539.28;5091875;28;20031;-69
2021/09/08 05:57:20;;;;;;;;;;;;;;;14.72;100.00;101534.63;5091307;28;20474;-69
2021/09/08 05:59:46;;;;;;;;;;;;;;;14.86;100.00;101524.34;5091676;28;20303;-70
2021/09/08 06:02:12;;;;;;;;;;;;;;;15.23;100.00;101530.19;5091424;28;20482;-69
2021/09/08 06:04:38;;;;;;;;;;;;;;;15.60;100.00;101527.91;5091086;28;19978;-69
2021/09/08 06:07:05;;;;;;;;;;;;;;;16.08;100.00;101526.34;5091091;28;20007;-69
2021/09/08 06:09:31;;;;;;;;;;;;;;;16.61;100.00;101522.34;5091209;28;20015;-70
2021/09/08 06:11:58;;;;;;;;;;;;;;;17.26;100.00;101527.16;5091812;28;20425;-70
2021/09/08 06:14:26;;;;;;;;;;;;;;;17.60;100.00;101527.47;5091716;28;20030;-70
2021/09/08 06:16:52;;;;;;;;;;;;;;;18.01;100.00;101527.13;5090954;28;19928;-70
2021/09/08 06:19:18;;;;;;;;;;;;;;;18.33;100.00;101525.75;5091336;28;20387;-70
2021/09/08 06:21:44;;;;;;;;;;;;;;;18.71;100.00;101519.06;5072895;28;19928;-70
2021/09/08 06:24:12;;;;;;;;;;;;;;;18.90;100.00;101526.28;5091440;28;19970;-70
2021/09/08 06:26:39;;;;;;;;;;;;;;;19.18;100.00;101525.31;5091566;28;20022;-70
2021/09/08 06:29:05;;;;;;;;;;;;;;;19.63;100.00;101521.41;5090838;28;20035;-70
2021/09/08 06:31:33;;;;;;;;;;;;;;;20.05;100.00;101519.69;5091403;28;20019;-70
2021/09/08 06:33:59;;;;;;;;;;;;;;;20.47;100.00;101515.13;5091459;28;20010;-70
2021/09/08 06:36:25;;;;;;;;;;;;;;;20.96;100.00;101517.91;5072853;28;20462;-70
2021/09/08 06:38:51;;;;;;;;;;;;;;;21.22;100.00;101514.94;5091278;28;19931;-70
2021/09/08 06:41:18;;;;;;;;;;;;;;;21.41;100.00;101508.16;5088785;28;19924;-70
2021/09/08 06:43:45;;;;;;;;;;;;;;;21.73;100.00;101513.78;5087002;28;20010;-70
2021/09/08 06:46:11;;;;;;;;;;;;;;;21.88;100.00;101517.47;5090995;28;19924;-70
2021/09/08 06:48:39;;;;;;;;;;;;;;;22.21;100.00;101513.69;5090531;28;19950;-68
2021/09/08 06:51:05;;;;;;;;;;;;;;;22.57;100.00;101513.97;5076009;28;20022;-69
2021/09/08 06:53:31;;;;;;;;;;;;;;;22.80;100.00;101510.31;5094982;28;19963;-68
2021/09/08 06:55:57;;;;;;;;;;;;;;;23.33;100.00;101513.13;5095131;28;20007;-68
2021/09/08 06:58:24;;;;;;;;;;;;;;;23.46;100.00;101504.13;5094550;28;20027;-68
2021/09/08 07:00:50;;;;;;;;;;;;;;;23.66;100.00;101507.16;5094478;28;20010;-70
2021/09/08 07:03:16;;;;;;;;;;;;;;;23.83;100.00;101502.28;5095513;28;20442;-69
2021/09/08 07:05:44;;;;;;;;;;;;;;;23.65;100.00;101505.47;5094674;28;20003;-69
2021/09/08 07:08:14;;;;;;;;;;;;;;;23.64;100.00;101506.53;5095240;28;19931;-69
2021/09/08 07:10:40;;;;;;;;;;;;;;;23.54;100.00;101501.28;5095019;28;20326;-68
2021/09/08 07:13:07;;;;;;;;;;;;;;;23.71;100.00;101503.84;5094777;28;19924;-69
2021/09/08 07:15:34;;;;;;;;;;;;;;;23.87;100.00;101497.22;5094587;28;19924;-69
2021/09/08 07:18:01;;;;;;;;;;;;;;;24.00;100.00;101502.09;5094511;28;19924;-69
2021/09/08 07:20:27;;;;;;;;;;;;;;;24.01;100.00;101503.81;5094844;28;20015;-69
2021/09/08 07:22:55;;;;;;;;;;;;;;;23.65;100.00;101501.81;5094727;28;19946;-68
2021/09/08 07:25:21;;;;;;;;;;;;;;;23.24;100.00;101492.94;5093782;28;20014;-68
2021/09/08 07:27:47;;;;;;;;;;;;;;;23.27;100.00;101490.88;5093660;28;19953;-68
2021/09/08 07:30:14;;;;;;;;;;;;;;;22.96;100.00;101491.84;5094250;28;20116;-69
2021/09/08 07:32:40;;;;;;;;;;;;;;;23.19;100.00;101492.66;5094569;28;20372;-68
2021/09/08 07:35:07;;;;;;;;;;;;;;;23.43;100.00;101501.75;5094447;28;20028;-69
2021/09/08 07:37:33;;;;;;;;;;;;;;;23.66;100.00;101500.78;5093688;28;20022;-69
2021/09/08 07:40:01;;;;;;;;;;;;;;;23.88;100.00;101494.25;5094910;28;19924;-68
2021/09/08 07:42:27;;;;;;;;;;;;;;;23.88;100.00;101494.25;5093922;28;19978;-69
2021/09/08 07:44:53;;;;;;;;;;;;;;;24.04;100.00;101500.66;5094274;28;19930;-70
2021/09/08 07:47:20;;;;;;;;;;;;;;;24.27;100.00;101492.16;5094216;28;19962;-71
2021/09/08 07:49:46;;;;;;;;;;;;;;;24.60;100.00;101496.31;5094029;28;20362;-71
2021/09/08 07:52:12;;;;;;;;;;;;;;;24.88;100.00;101499.16;5094214;28;20019;-70
2021/09/08 07:54:38;;;;;;;;;;;;;;;25.30;100.00;101490.91;5094023;28;20452;-71
2021/09/08 07:57:06;;;;;;;;;;;;;;;25.36;100.00;101493.78;5093835;28;19928;-70
2021/09/08 07:59:32;;;;;;;;;;;;;;;25.44;100.00;101489.97;5094066;28;20451;-70
2021/09/08 08:01:59;;;;;;;;;;;;;;;25.21;100.00;101491.09;5092796;28;20035;-70
2021/09/08 08:04:25;;;;;;;;;;;;;;;25.33;100.00;101491.34;5094284;28;20026;-69
2021/09/08 08:06:51;;;;;;;;;;;;;;;25.87;99.08;101492.50;5093164;28;19959;-68
2021/09/08 08:09:17;;;;;;;;;;;;;;;25.95;95.25;101493.38;5092752;28;20022;-68
2021/09/08 08:11:44;;;;;;;;;;;;;;;26.02;92.57;101491.50;5093885;28;19924;-68
2021/09/08 08:14:13;;;;;;;;;;;;;;;26.14;91.18;101486.22;5093174;28;20038;-69
2021/09/08 08:16:39;;;;;;;;;;;;;;;26.48;93.55;101476.84;5093778;28;20473;-69
2021/09/08 08:19:06;;;;;;;;;;;;;;;26.22;83.52;101484.09;5093302;28;19928;-68
2021/09/08 08:21:32;;;;;;;;;;;;;;;26.36;91.66;101485.00;5093693;28;19927;-68
2021/09/08 08:23:59;;;;;;;;;;;;;;;26.27;79.55;101489.03;5075449;28;20311;-69
2021/09/08 08:26:25;;;;;;;;;;;;;;;26.39;79.81;101483.72;5091878;28;19969;-68
2021/09/08 08:28:51;;;;;;;;;;;;;;;26.88;74.86;101490.84;5093345;28;19970;-68
2021/09/08 08:31:19;;;;;;;;;;;;;;;26.54;75.50;101483.50;5092740;28;20031;-68
2021/09/08 08:33:46;;;;;;;;;;;;;;;26.72;79.05;101483.75;5093022;28;19930;-68
2021/09/08 08:36:12;;;;;;;;;;;;;;;27.17;75.22;101480.28;5092897;28;19958;-70
2021/09/08 08:38:40;;;;;;;;;;;;;;;27.60;68.80;101484.47;5092949;28;20023;-70
2021/09/08 08:41:06;;;;;;;;;;;;;;;27.47;70.15;101473.38;5092957;28;20291;-68
2021/09/08 08:43:33;;;;;;;;;;;;;;;26.93;73.38;101483.75;5092770;28;20387;-68
2021/09/08 08:45:59;;;;;;;;;;;;;;;26.60;78.47;101479.84;5093007;28;20459;-68
2021/09/08 08:48:27;;;;;;;;;;;;;;;26.75;82.72;101479.69;5091993;28;19928;-68
2021/09/08 08:50:54;;;;;;;;;;;;;;;26.65;74.37;101482.84;5091517;28;20126;-68
2021/09/08 08:53:20;;;;;;;;;;;;;;;26.84;74.59;101478.38;5092567;28;20022;-68
2021/09/08 08:55:46;;;;;;;;;;;;;;;26.92;80.56;101470.91;5092478;28;19958;-68
2021/09/08 08:58:13;;;;;;;;;;;;;;;27.19;74.75;101480.06;5092841;28;20462;-68
2021/09/08 09:00:40;;;;;;;;;;;;;;;27.07;76.00;101477.06;5092582;28;20018;-68
2021/09/08 09:03:06;;;;;;;;;;;;;;;27.39;74.35;101480.91;5092869;28;19924;-68
2021/09/08 09:05:35;;;;;;;;;;;;;;;27.54;71.65;101483.44;5092697;28;20030;-68
2021/09/08 09:08:02;;;;;;;;;;;;;;;28.15;74.99;101483.19;5063749;28;19963;-68
2021/09/08 09:10:28;;;;;;;;;;;;;;;28.18;69.16;101482.72;5085733;28;20018;-68
2021/09/08 09:12:55;;;;;;;;;;;;;;;28.09;65.26;101475.69;5108477;28;19955;-68
2021/09/08 09:15:22;;;;;;;;;;;;;;;27.42;66.19;101475.97;5092019;28;20047;-68
2021/09/08 09:17:49;;;;;;;;;;;;;;;27.44;69.34;101471.03;5092385;28;19935;-69
2021/09/08 09:20:16;;;;;;;;;;;;;;;26.81;68.67;101464.06;5092380;28;19928;-68
2021/09/08 09:22:45;;;;;;;;;;;;;;;27.02;71.21;101455.44;5092486;28;20023;-68
2021/09/08 09:25:12;;;;;;;;;;;;;;;27.28;68.45;101461.19;5092781;28;20015;-68
2021/09/08 09:27:39;;;;;;;;;;;;;;;27.52;68.19;101456.84;5091735;28;19928;-67
2021/09/08 09:30:08;;;;;;;;;;;;;;;27.59;62.67;101454.03;5092741;28;20288;-68
2021/09/08 09:32:35;;;;;;;;;;;;;;;28.03;62.57;101450.44;5091477;28;19928;-67
2021/09/08 09:35:01;;;;;;;;;;;;;;;27.90;62.92;101453.25;5092356;28;19932;-69
2021/09/08 09:37:31;;;;;;;;;;;;;;;27.67;61.81;101445.41;5092342;28;20393;-70
2021/09/08 09:40:01;;;;;;;;;;;;;;;28.01;64.80;101447.00;5092067;28;20027;-70
2021/09/08 09:42:31;;;;;;;;;;;;;;;28.22;62.01;101447.72;5092558;28;20030;-70
2021/09/08 09:44:59;;;;;;;;;;;;;;;28.01;61.50;101446.16;5092031;28;19924;-70
2021/09/08 09:47:26;;;;;;;;;;;;;;;27.94;61.85;101436.91;5092202;28;19928;-70
2021/09/08 09:49:53;;;;;;;;;;;;;;;27.13;62.73;101436.38;5092449;28;19924;-70
2021/09/08 09:52:22;;;;;;;;;;;;;;;27.39;62.19;101427.09;5091516;28;20026;-70
2021/09/08 09:54:49;;;;;;;;;;;;;;;27.58;63.11;101427.22;5092396;28;19928;-70
2021/09/08 09:57:16;;;;;;;;;;;;;;;27.94;62.97;101428.53;5091694;28;20019;-70
2021/09/08 09:59:43;;;;;;;;;;;;;;;27.81;61.04;101427.56;5092173;28;20015;-70
2021/09/08 10:02:09;;;;;;;;;;;;;;;27.85;59.27;101423.25;5073900;28;20440;-70
2021/09/08 10:04:36;;;;;;;;;;;;;;;28.64;60.31;101427.66;5091869;28;19928;-70
2021/09/08 10:07:04;;;;;;;;;;;;;;;28.62;59.24;101415.84;5091872;28;20011;-70
2021/09/08 10:09:30;;;;;;;;;;;;;;;28.50;60.80;101412.94;5091207;28;20015;-70
2021/09/08 10:11:58;;;;;;;;;;;;;;;28.76;58.43;101406.28;5073705;28;20019;-70
2021/09/08 10:14:28;;;;;;;;;;;;;;;28.33;58.47;101409.88;5091788;28;19925;-70
2021/09/08 10:16:54;;;;;;;;;;;;;;;28.06;58.53;101402.53;5091537;28;20022;-70
2021/09/08 10:19:24;;;;;;;;;;;;;;;28.69;60.43;101395.19;5091946;28;20027;-76
2021/09/08 10:21:51;;;;;;;;;;;;;;;28.13;59.08;101404.41;5073027;28;20022;-75
2021/09/08 10:24:18;;;;;;;;;;;;;;;28.73;60.28;101396.44;5091331;28;20018;-76
2021/09/08 10:26:46;;;;;;;;;;;;;;;28.84;58.34;101397.59;5090800;28;20084;-76
2021/09/08 10:29:12;;;;;;;;;;;;;;;28.45;59.06;101393.22;5091470;28;19967;-76
2021/09/08 10:31:41;;;;;;;;;;;;;;;28.13;60.94;101385.75;5091077;28;19928;-68
2021/09/08 10:34:08;;;;;;;;;;;;;;;28.51;59.69;101387.56;5091132;28;20387;-68
2021/09/08 10:36:38;;;;;;;;;;;;;;;28.36;57.12;101382.34;5090658;28;21577;-68
2021/09/08 10:39:05;;;;;;;;;;;;;;;28.16;60.95;101376.91;5082868;28;19924;-68
2021/09/08 10:41:39;;;;;;;;;;;;;;;28.40;65.17;101377.16;5069685;28;20027;-68
2021/09/08 10:44:06;;;;;;;;;;;;;;;28.43;58.77;101367.47;5069390;28;19960;-66
2021/09/08 10:46:49;;;;;;;;;;;;;;;28.76;63.59;101372.78;5069164;28;20012;-66
2021/09/08 10:49:30;;;;;;;;;;;;;;;28.93;59.07;101377.75;5069464;28;20569;-66
2021/09/08 10:51:56;;;;;;;;;;;;;;;28.76;55.71;101364.41;5068286;28;19931;-64
2021/09/08 10:54:23;;;;;;;;;;;;;;;28.42;58.76;101369.41;5069310;28;19924;-65
2021/09/08 10:56:50;;;;;;;;;;;;;;;28.37;57.18;101369.25;5069833;28;19934;-65
2021/09/08 10:59:16;;;;;;;;;;;;;;;28.56;55.51;101359.81;5071020;28;20303;-65
2021/09/08 11:01:43;;;;;;;;;;;;;;;28.56;58.68;101362.63;5070989;28;20212;-65
2021/09/08 11:04:14;;;;;;;;;;;;;;;28.37;62.21;101350.56;5070852;28;20358;-65
2021/09/08 11:06:43;;;;;;;;;;;;;;;28.16;59.45;101354.59;5070440;28;20367;-65
2021/09/08 11:09:10;;;;;;;;;;;;;;;28.65;59.17;101349.25;5052755;28;19925;-65
2021/09/08 11:11:49;;;;;;;;;;;;;;;29.00;57.53;101350.59;5070831;28;19959;-65
2021/09/08 11:14:16;;;;;;;;;;;;;;;28.97;58.96;101351.94;5071018;28;19947;-65
2021/09/08 11:16:43;;;;;;;;;;;;;;;28.78;53.77;101348.25;5070486;28;19932;-66
2021/09/08 11:19:12;;;;;;;;;;;;;;;28.86;59.24;101347.97;5071067;28;20028;-65
2021/09/08 11:21:40;;;;;;;;;;;;;;;28.44;57.67;101344.91;5070550;28;20024;-65
2021/09/08 11:24:08;;;;;;;;;;;;;;;27.18;70.59;101345.47;5052365;28;19928;-65
2021/09/08 11:26:35;;;;;;;;;;;;;;;26.13;74.49;101337.06;5070249;28;19924;-65
2021/09/08 11:29:02;;;;;;;;;;;;;;;26.35;73.99;101335.78;5070506;28;20024;-65
2021/09/08 11:31:32;;;;;;;;;;;;;;;26.62;72.08;101337.66;5070743;28;20425;-65
2021/09/08 11:33:59;;;;;;;;;;;;;;;26.27;72.18;101346.25;5070392;28;19939;-65
2021/09/08 11:36:25;;;;;;;;;;;;;;;25.70;77.75;101343.84;5070293;28;19970;-65
2021/09/08 11:38:57;;;;;;;;;;;;;;;25.89;79.52;101336.59;5074013;28;19924;-65
2021/09/08 11:41:23;;;;;;;;;;;;;;;26.50;80.15;101330.00;5074068;28;19925;-65
2021/09/08 11:43:50;;;;;;;;;;;;;;;27.30;71.19;101344.78;5082123;28;20473;-65
2021/09/08 11:46:19;;;;;;;;;;;;;;;27.44;67.39;101331.69;5094133;28;19928;-65
2021/09/08 11:48:46;;;;;;;;;;;;;;;27.63;69.65;101330.69;5094570;28;20023;-65
2021/09/08 11:51:13;;;;;;;;;;;;;;;28.15;62.52;101316.59;5094179;28;20426;-65
2021/09/08 11:53:40;;;;;;;;;;;;;;;27.99;62.83;101326.38;5076331;28;20003;-65
2021/09/08 11:56:08;;;;;;;;;;;;;;;27.34;64.65;101318.16;5094645;28;19971;-65
2021/09/08 11:58:35;;;;;;;;;;;;;;;27.37;73.57;101321.41;5093717;28;20007;-65
2021/09/08 12:01:04;;;;;;;;;;;;;;;27.28;69.72;101316.28;5094157;28;19924;-65
2021/09/08 12:03:30;;;;;;;;;;;;;;;27.25;70.19;101316.75;5093823;28;19951;-65
2021/09/08 12:06:08;;;;;;;;;;;;;;;26.68;71.35;101314.53;5094048;28;19928;-65
2021/09/08 12:08:34;;;;;;;;;;;;;;;25.67;79.16;101311.75;5074716;28;19930;-65
2021/09/08 12:11:01;;;;;;;;;;;;;;;25.67;80.67;101313.66;5080145;28;19932;-65
2021/09/08 12:13:29;;;;;;;;;;;;;;;26.39;78.27;101306.47;5073762;28;20011;-65
2021/09/08 12:15:56;;;;;;;;;;;;;;;27.08;73.05;101308.88;5054978;28;20020;-66
2021/09/08 12:18:22;;;;;;;;;;;;;;;27.64;68.59;101301.75;5063363;28;20372;-65
2021/09/08 12:20:48;;;;;;;;;;;;;;;27.96;68.63;101303.66;5085460;28;20016;-65
2021/09/08 12:23:28;;;;;;;;;;;;;;;28.14;66.37;101297.31;5094010;28;19924;-65
2021/09/08 12:26:05;;;;;;;;;;;;;;;27.73;67.35;101300.38;5075974;28;20280;-66
2021/09/08 12:28:33;;;;;;;;;;;;;;;27.14;67.55;101296.84;5092951;28;19925;-65
2021/09/08 12:31:15;;;;;;;;;;;;;;;27.55;68.73;101284.44;5093708;28;19989;-66
2021/09/08 12:33:51;;;;;;;;;;;;;;;28.02;66.08;101280.44;5092948;28;19924;-66